Time;durP1;ratioP1;P1;durP2;ratioP2;P2;SDS_P1;SDS_P2;PMS_P1;PMS_P2;Temp;Humidity;BMP_temperature;BMP_pressure;BME280_temperature;BME280_humidity;BME280_pressure;Samples;Min_cycle;Max_cycle;Signal;HPM_P1;HPM_P2
2024/04/11 00:00:16;;;;;;;4.75;1.73;;;;;;;;;;5483080;26;20005;-79
2024/04/11 00:02:43;;;;;;;4.60;2.33;;;;;;;;;;5496582;26;20002;-79
2024/04/11 00:05:10;;;;;;;3.42;2.00;;;;;;;;;;5479109;26;20050;-79
2024/04/11 00:07:37;;;;;;;2.67;1.70;;;;;;;;;;5463428;26;20012;-79
2024/04/11 00:10:04;;;;;;;9.00;2.33;;;;;;;;;;5490113;26;20073;-79
2024/04/11 00:12:30;;;;;;;3.47;1.83;;;;;;;;;;5481947;26;19997;-79
2024/04/11 00:14:57;;;;;;;3.25;1.75;;;;;;;;;;5463577;26;20017;-78
2024/04/11 00:17:24;;;;;;;5.07;2.50;;;;;;;;;;5470228;26;20002;-78
2024/04/11 00:19:51;;;;;;;3.95;1.90;;;;;;;;;;5483406;26;20068;-78
2024/04/11 00:22:18;;;;;;;9.05;2.25;;;;;;;;;;5475975;26;19998;-78
2024/04/11 00:24:46;;;;;;;3.25;1.80;;;;;;;;;;5519503;26;20006;-78
2024/04/11 00:27:13;;;;;;;4.25;1.88;;;;;;;;;;5463020;26;20005;-78
2024/04/11 00:29:39;;;;;;;5.03;1.80;;;;;;;;;;5454552;26;20012;-79
2024/04/11 00:32:06;;;;;;;5.65;1.98;;;;;;;;;;5522935;26;20001;-79
2024/04/11 00:34:38;;;;;;;6.85;1.90;;;;;;;;;;5453765;26;20002;-79
2024/04/11 00:37:05;;;;;;;5.68;2.30;;;;;;;;;;5475171;26;20002;-78
2024/04/11 00:39:31;;;;;;;6.30;2.05;;;;;;;;;;5457671;26;20070;-78
2024/04/11 00:41:58;;;;;;;4.38;2.10;;;;;;;;;;5489035;26;20002;-78
2024/04/11 00:44:25;;;;;;;8.90;2.72;;;;;;;;;;5495611;26;20005;-78
2024/04/11 00:46:54;;;;;;;8.13;3.15;;;;;;;;;;5464362;26;20001;-79
2024/04/11 00:49:21;;;;;;;11.23;2.30;;;;;;;;;;5446092;26;20001;-78
2024/04/11 00:51:48;;;;;;;4.85;2.05;;;;;;;;;;5456720;26;20435;-79
2024/04/11 00:54:16;;;;;;;11.15;2.53;;;;;;;;;;5463474;26;20069;-78
2024/04/11 00:56:44;;;;;;;6.95;2.00;;;;;;;;;;5462945;26;20008;-78
2024/04/11 00:59:16;;;;;;;5.13;1.80;;;;;;;;;;5463354;26;20005;-78
2024/04/11 01:01:46;;;;;;;6.93;2.33;;;;;;;;;;5454969;26;20004;-79
2024/04/11 01:04:12;;;;;;;4.43;1.85;;;;;;;;;;5493964;26;20016;-79
2024/04/11 01:09:28;;;;;;;7.10;2.20;;;;;;;;;;5493730;26;19997;-79
2024/04/11 01:11:56;;;;;;;2.78;1.90;;;;;;;;;;5436881;26;20533;-79
2024/04/11 01:14:23;;;;;;;5.65;2.13;;;;;;;;;;5493632;26;20005;-79
2024/04/11 01:16:50;;;;;;;4.40;2.08;;;;;;;;;;5493015;26;20351;-78
2024/04/11 01:19:17;;;;;;;5.53;2.28;;;;;;;;;;5444493;26;20041;-78
2024/04/11 01:21:44;;;;;;;4.95;1.70;;;;;;;;;;5458684;26;20074;-78
2024/04/11 01:24:13;;;;;;;4.28;2.22;;;;;;;;;;5434651;26;20411;-78
2024/04/11 01:26:40;;;;;;;4.50;1.75;;;;;;;;;;5444321;26;20002;-78
2024/04/11 01:29:07;;;;;;;4.90;2.10;;;;;;;;;;5491972;26;20045;-78
2024/04/11 01:31:34;;;;;;;4.63;1.95;;;;;;;;;;5462457;26;20017;-77
2024/04/11 01:34:01;;;;;;;3.80;1.60;;;;;;;;;;5442148;26;20005;-77
2024/04/11 01:36:28;;;;;;;6.40;1.80;;;;;;;;;;5491713;26;20009;-77
2024/04/11 01:38:54;;;;;;;4.03;1.80;;;;;;;;;;5493031;26;20029;-78
2024/04/11 01:41:22;;;;;;;5.70;2.10;;;;;;;;;;5476787;26;20375;-78
2024/04/11 01:43:49;;;;;;;2.67;2.10;;;;;;;;;;5462378;26;20017;-79
2024/04/11 01:46:18;;;;;;;4.35;2.30;;;;;;;;;;5491672;26;20470;-78
2024/04/11 01:48:45;;;;;;;8.23;3.00;;;;;;;;;;5460134;26;20009;-78
2024/04/11 01:51:13;;;;;;;20.80;7.82;;;;;;;;;;5440470;26;20466;-78
2024/04/11 01:53:40;;;;;;;10.70;4.57;;;;;;;;;;5443379;26;20017;-78
2024/04/11 01:56:09;;;;;;;7.13;3.50;;;;;;;;;;5461975;26;20012;-78
2024/04/11 01:58:36;;;;;;;6.28;2.80;;;;;;;;;;5480125;26;20017;-78
2024/04/11 02:01:09;;;;;;;6.20;3.08;;;;;;;;;;5456770;26;20002;-81
2024/04/11 02:03:38;;;;;;;3.08;2.17;;;;;;;;;;5428340;26;20006;-81
2024/04/11 02:06:07;;;;;;;3.53;1.98;;;;;;;;;;5427772;26;20018;-80
2024/04/11 02:08:35;;;;;;;5.57;2.38;;;;;;;;;;5428288;26;20002;-80
2024/04/11 02:11:03;;;;;;;5.30;2.38;;;;;;;;;;5473169;26;19997;-81
2024/04/11 02:13:30;;;;;;;6.10;2.03;;;;;;;;;;5435698;26;20024;-81
2024/04/11 02:15:57;;;;;;;5.30;2.40;;;;;;;;;;5462003;26;19998;-81
2024/04/11 02:18:24;;;;;;;6.78;2.00;;;;;;;;;;5474219;26;20002;-81
2024/04/11 02:20:53;;;;;;;4.10;2.20;;;;;;;;;;5432744;26;19999;-78
2024/04/11 02:23:20;;;;;;;4.22;2.75;;;;;;;;;;5427656;26;20003;-77
2024/04/11 02:25:51;;;;;;;6.45;2.22;;;;;;;;;;5393179;26;20002;-76
2024/04/11 02:28:21;;;;;;;6.88;2.58;;;;;;;;;;5445219;26;20052;-80
2024/04/11 02:30:48;;;;;;;2.63;2.25;;;;;;;;;;5446774;26;20530;-78
2024/04/11 02:33:14;;;;;;;4.53;1.73;;;;;;;;;;5463522;26;20006;-79
2024/04/11 02:35:42;;;;;;;4.43;2.45;;;;;;;;;;5465967;26;20010;-78
2024/04/11 02:38:10;;;;;;;9.82;1.92;;;;;;;;;;5433466;26;20009;-79
2024/04/11 02:40:37;;;;;;;3.95;2.10;;;;;;;;;;5439620;26;20001;-79
2024/04/11 02:43:04;;;;;;;6.25;2.65;;;;;;;;;;5434268;26;20024;-79
2024/04/11 02:45:31;;;;;;;5.35;2.05;;;;;;;;;;5431192;26;20074;-80
2024/04/11 02:47:58;;;;;;;3.63;2.53;;;;;;;;;;5430792;26;20383;-80
2024/04/11 02:50:25;;;;;;;4.50;2.25;;;;;;;;;;5464872;26;20001;-80
2024/04/11 02:52:52;;;;;;;8.32;2.65;;;;;;;;;;5477836;26;20475;-79
2024/04/11 02:55:19;;;;;;;3.95;2.85;;;;;;;;;;5430469;26;20006;-79
2024/04/11 02:57:46;;;;;;;7.30;3.20;;;;;;;;;;5460782;26;20002;-79
2024/04/11 03:00:16;;;;;;;5.22;2.20;;;;;;;;;;5432930;26;20425;-79
2024/04/11 03:02:43;;;;;;;2.97;2.13;;;;;;;;;;5469318;26;20006;-78
2024/04/11 03:05:12;;;;;;;5.85;2.63;;;;;;;;;;5460294;26;20010;-79
2024/04/11 03:07:39;;;;;;;4.88;2.17;;;;;;;;;;5443640;26;20002;-79
2024/04/11 03:10:07;;;;;;;4.22;2.42;;;;;;;;;;5447091;26;20010;-78
2024/04/11 03:12:34;;;;;;;6.32;2.60;;;;;;;;;;5469118;26;20026;-78
2024/04/11 03:15:03;;;;;;;3.70;2.15;;;;;;;;;;5433109;26;20002;-78
2024/04/11 03:17:33;;;;;;;5.10;2.05;;;;;;;;;;5432879;26;20013;-78
2024/04/11 03:20:00;;;;;;;4.10;2.40;;;;;;;;;;5459822;26;20030;-78
2024/04/11 03:22:27;;;;;;;4.40;2.85;;;;;;;;;;5425673;26;20460;-78
2024/04/11 03:24:54;;;;;;;4.53;2.40;;;;;;;;;;5463873;26;20002;-78
2024/04/11 03:27:20;;;;;;;5.70;2.20;;;;;;;;;;5466416;26;20457;-79
2024/04/11 03:29:48;;;;;;;8.27;2.58;;;;;;;;;;5462129;26;20072;-78
2024/04/11 03:32:15;;;;;;;4.38;2.13;;;;;;;;;;5461762;26;20058;-78
2024/04/11 03:34:42;;;;;;;5.65;2.72;;;;;;;;;;5430735;26;20075;-78
2024/04/11 03:37:09;;;;;;;4.35;2.55;;;;;;;;;;5429558;26;20090;-78
2024/04/11 03:39:36;;;;;;;10.20;2.67;;;;;;;;;;5458976;26;20047;-78
2024/04/11 03:42:03;;;;;;;5.57;2.78;;;;;;;;;;5429280;26;20318;-78
2024/04/11 03:44:30;;;;;;;4.60;2.58;;;;;;;;;;5429407;26;20012;-78
2024/04/11 03:46:58;;;;;;;7.00;2.30;;;;;;;;;;5423884;26;20384;-81
2024/04/11 03:49:25;;;;;;;4.88;2.67;;;;;;;;;;5429116;26;20008;-83
2024/04/11 03:51:51;;;;;;;6.93;2.20;;;;;;;;;;5428534;26;20006;-82
2024/04/11 03:54:18;;;;;;;5.60;2.75;;;;;;;;;;5420913;26;20002;-79
2024/04/11 03:56:45;;;;;;;9.50;3.20;;;;;;;;;;5457906;26;20003;-79
2024/04/11 03:59:12;;;;;;;3.58;2.28;;;;;;;;;;5457768;26;19998;-80
2024/04/11 04:01:39;;;;;;;5.80;2.75;;;;;;;;;;5487766;26;20504;-79
2024/04/11 04:04:07;;;;;;;4.05;2.30;;;;;;;;;;5459266;26;20006;-79
2024/04/11 04:06:34;;;;;;;2.50;2.13;;;;;;;;;;5425402;26;20011;-78
2024/04/11 04:09:07;;;;;;;7.50;2.33;;;;;;;;;;5481050;26;20008;-80
2024/04/11 04:11:36;;;;;;;3.92;2.55;;;;;;;;;;5479820;26;20012;-80
2024/04/11 04:14:08;;;;;;;7.85;2.60;;;;;;;;;;5454245;26;19998;-81
2024/04/11 04:16:38;;;;;;;2.83;2.33;;;;;;;;;;5439207;26;19994;-80
2024/04/11 04:19:07;;;;;;;5.47;2.92;;;;;;;;;;5443993;26;20013;-79
2024/04/11 04:21:35;;;;;;;6.38;2.80;;;;;;;;;;5449848;26;20041;-80
2024/04/11 04:24:05;;;;;;;4.25;2.55;;;;;;;;;;5443108;26;20003;-81
2024/04/11 04:26:34;;;;;;;4.47;2.58;;;;;;;;;;5432248;26;20348;-81
2024/04/11 04:29:01;;;;;;;3.22;2.45;;;;;;;;;;5446302;26;19997;-82
2024/04/11 04:31:29;;;;;;;8.50;2.92;;;;;;;;;;5455231;26;20019;-80
2024/04/11 04:33:57;;;;;;;7.43;3.00;;;;;;;;;;5480011;26;20042;-82
2024/04/11 04:36:26;;;;;;;3.85;2.92;;;;;;;;;;5454249;26;20462;-82
2024/04/11 04:38:54;;;;;;;4.60;2.70;;;;;;;;;;5462219;26;20006;-83
2024/04/11 04:41:21;;;;;;;7.60;2.90;;;;;;;;;;5440661;26;20001;-83
2024/04/11 04:43:55;;;;;;;8.30;3.00;;;;;;;;;;5467353;26;20013;-82
2024/04/11 04:46:26;;;;;;;4.38;2.75;;;;;;;;;;5471036;26;20012;-83
2024/04/11 04:48:52;;;;;;;3.35;2.53;;;;;;;;;;5414539;26;20019;-82
2024/04/11 04:51:20;;;;;;;5.65;3.17;;;;;;;;;;5498592;26;20042;-83
2024/04/11 04:53:49;;;;;;;8.63;3.33;;;;;;;;;;5467069;26;20016;-82
2024/04/11 04:56:18;;;;;;;4.32;2.50;;;;;;;;;;5469196;26;20406;-83
2024/04/11 04:58:45;;;;;;;7.95;3.22;;;;;;;;;;5481279;26;20037;-82
2024/04/11 05:01:12;;;;;;;9.43;2.90;;;;;;;;;;5471944;26;20002;-82
2024/04/11 05:03:39;;;;;;;3.53;2.55;;;;;;;;;;5470162;25;20022;-83
2024/04/11 05:06:12;;;;;;;8.07;2.95;;;;;;;;;;5448442;26;20021;-80
2024/04/11 05:08:45;;;;;;;7.87;2.50;;;;;;;;;;5467072;26;19997;-80
2024/04/11 05:11:13;;;;;;;4.90;3.28;;;;;;;;;;5496075;26;20406;-80
2024/04/11 05:13:43;;;;;;;4.88;2.90;;;;;;;;;;5465907;26;19998;-80
2024/04/11 05:16:18;;;;;;;8.50;3.20;;;;;;;;;;5483220;26;20390;-80
2024/04/11 05:18:47;;;;;;;6.13;3.28;;;;;;;;;;5459341;26;20046;-80
2024/04/11 05:21:20;;;;;;;6.18;2.70;;;;;;;;;;5495614;26;20012;-80
2024/04/11 05:23:47;;;;;;;8.73;4.28;;;;;;;;;;5496438;26;20001;-80
2024/04/11 05:26:14;;;;;;;6.80;3.10;;;;;;;;;;5454921;26;20465;-80
2024/04/11 05:28:46;;;;;;;11.40;3.13;;;;;;;;;;5473687;26;19994;-80
2024/04/11 05:31:16;;;;;;;7.00;2.60;;;;;;;;;;5442258;26;20306;-80
2024/04/11 05:33:53;;;;;;;6.20;2.67;;;;;;;;;;5410083;26;20017;-79
2024/04/11 05:36:28;;;;;;;9.25;2.97;;;;;;;;;;5449877;26;20069;-83
2024/04/11 05:38:56;;;;;;;5.20;2.50;;;;;;;;;;5426830;26;20352;-77
2024/04/11 05:41:24;;;;;;;6.18;3.00;;;;;;;;;;5473021;26;20002;-76
2024/04/11 05:43:51;;;;;;;3.22;2.85;;;;;;;;;;5456014;26;20506;-79
2024/04/11 05:46:18;;;;;;;6.72;3.00;;;;;;;;;;5451114;26;19999;-78
2024/04/11 05:48:45;;;;;;;6.03;2.97;;;;;;;;;;5451673;26;20014;-79
2024/04/11 05:51:12;;;;;;;7.40;3.70;;;;;;;;;;5483675;26;20084;-75
2024/04/11 05:53:40;;;;;;;5.95;3.47;;;;;;;;;;5421473;26;20041;-80
2024/04/11 05:56:08;;;;;;;4.93;3.03;;;;;;;;;;5424053;26;20082;-76
2024/04/11 05:58:37;;;;;;;3.90;2.50;;;;;;;;;;5410763;26;20021;-76
2024/04/11 06:01:05;;;;;;;5.88;3.40;;;;;;;;;;5406530;26;20007;-75
2024/04/11 06:03:34;;;;;;;4.22;2.80;;;;;;;;;;5400319;26;20364;-75
2024/04/11 06:06:03;;;;;;;6.90;3.35;;;;;;;;;;5442622;26;20036;-76
2024/04/11 06:08:30;;;;;;;7.63;3.35;;;;;;;;;;5434287;26;20489;-76
2024/04/11 06:10:57;;;;;;;5.65;2.88;;;;;;;;;;5429954;26;20056;-76
2024/04/11 06:13:23;;;;;;;6.38;3.15;;;;;;;;;;5485309;26;20045;-76
2024/04/11 06:15:50;;;;;;;7.50;4.38;;;;;;;;;;5446028;26;20021;-76
2024/04/11 06:18:18;;;;;;;6.70;3.05;;;;;;;;;;5447154;26;20383;-76
2024/04/11 06:20:45;;;;;;;6.85;2.95;;;;;;;;;;5452973;26;20022;-76
2024/04/11 06:23:19;;;;;;;3.85;2.58;;;;;;;;;;5453552;26;20060;-75
2024/04/11 06:25:47;;;;;;;7.45;3.22;;;;;;;;;;5446305;26;19998;-73
2024/04/11 06:28:15;;;;;;;8.77;3.45;;;;;;;;;;5468935;26;20037;-78
2024/04/11 06:30:42;;;;;;;7.05;3.45;;;;;;;;;;5460362;26;20003;-77
2024/04/11 06:33:08;;;;;;;8.48;2.97;;;;;;;;;;5418008;26;20009;-75
2024/04/11 06:35:36;;;;;;;4.88;3.78;;;;;;;;;;5431082;26;20003;-73
2024/04/11 06:38:07;;;;;;;7.65;3.38;;;;;;;;;;5440316;26;19999;-76
2024/04/11 06:40:34;;;;;;;5.57;3.10;;;;;;;;;;5437109;26;20078;-76
2024/04/11 06:43:01;;;;;;;10.68;4.25;;;;;;;;;;5451761;26;20010;-76
2024/04/11 06:45:30;;;;;;;6.93;4.05;;;;;;;;;;5448356;26;20051;-76
2024/04/11 06:47:57;;;;;;;6.30;3.85;;;;;;;;;;5464598;26;19999;-76
2024/04/11 06:50:24;;;;;;;7.07;3.20;;;;;;;;;;5465298;26;19997;-77
2024/04/11 06:52:53;;;;;;;9.57;3.67;;;;;;;;;;5456809;26;20003;-79
2024/04/11 06:55:20;;;;;;;6.05;3.45;;;;;;;;;;5444886;26;20577;-76
2024/04/11 06:57:47;;;;;;;6.65;3.70;;;;;;;;;;5440960;26;20029;-76
2024/04/11 07:00:35;;;;;;;6.72;3.45;;;;;;;;;;5435418;26;20024;-74
2024/04/11 07:03:16;;;;;;;6.57;2.90;;;;;;;;;;5407051;26;19998;-79
2024/04/11 07:05:50;;;;;;;4.68;2.85;;;;;;;;;;5442446;26;20006;-76
2024/04/11 07:08:19;;;;;;;6.38;3.35;;;;;;;;;;5413065;26;20021;-75
2024/04/11 07:10:46;;;;;;;12.23;3.40;;;;;;;;;;5413011;26;20182;-76
2024/04/11 07:13:13;;;;;;;6.70;2.72;;;;;;;;;;5425163;26;20006;-76
2024/04/11 07:15:42;;;;;;;4.35;2.95;;;;;;;;;;5449501;26;20006;-77
2024/04/11 07:18:14;;;;;;;4.78;3.15;;;;;;;;;;5479501;26;20094;-76
2024/04/11 07:20:46;;;;;;;4.13;2.95;;;;;;;;;;5429868;26;20018;-76
2024/04/11 07:23:17;;;;;;;4.28;2.70;;;;;;;;;;5429940;26;20017;-75
2024/04/11 07:25:44;;;;;;;6.32;2.55;;;;;;;;;;5483879;26;20086;-76
2024/04/11 07:28:11;;;;;;;10.88;3.03;;;;;;;;;;5444209;26;20002;-76
2024/04/11 07:30:38;;;;;;;10.27;2.90;;;;;;;;;;5445180;26;20002;-76
2024/04/11 07:33:06;;;;;;;5.68;3.08;;;;;;;;;;5428490;26;20018;-77
2024/04/11 07:35:37;;;;;;;9.60;3.10;;;;;;;;;;5449746;26;20355;-77
2024/04/11 07:38:04;;;;;;;9.40;3.40;;;;;;;;;;5455321;26;20492;-77
2024/04/11 07:40:32;;;;;;;9.52;3.13;;;;;;;;;;5454467;26;20414;-76
2024/04/11 07:43:09;;;;;;;7.25;2.97;;;;;;;;;;5450098;26;20050;-76
2024/04/11 07:45:36;;;;;;;4.68;2.45;;;;;;;;;;5456613;26;20007;-76
2024/04/11 07:48:04;;;;;;;12.13;3.10;;;;;;;;;;5436390;26;19999;-76
2024/04/11 07:50:36;;;;;;;11.23;3.17;;;;;;;;;;5463544;26;20415;-76
2024/04/11 07:53:06;;;;;;;6.85;2.85;;;;;;;;;;5441410;26;20002;-78
2024/04/11 07:55:33;;;;;;;7.00;2.92;;;;;;;;;;5434457;26;20021;-78
2024/04/11 07:58:05;;;;;;;6.75;2.80;;;;;;;;;;5412668;26;20002;-75
2024/04/11 08:00:38;;;;;;;5.22;2.90;;;;;;;;;;5487133;26;20348;-80
2024/04/11 08:03:07;;;;;;;5.60;2.45;;;;;;;;;;5462840;26;20042;-80
2024/04/11 08:05:34;;;;;;;2.72;2.45;;;;;;;;;;5455334;26;20006;-76
2024/04/11 08:08:01;;;;;;;8.88;2.88;;;;;;;;;;5459155;26;20002;-75
2024/04/11 08:10:28;;;;;;;5.57;2.70;;;;;;;;;;5462649;26;20005;-76
2024/04/11 08:12:57;;;;;;;6.07;2.80;;;;;;;;;;5446436;26;20006;-75
2024/04/11 08:15:25;;;;;;;7.10;2.45;;;;;;;;;;5456606;26;20017;-75
2024/04/11 08:17:52;;;;;;;4.68;2.28;;;;;;;;;;5433349;26;20007;-75
2024/04/11 08:20:19;;;;;;;5.47;2.58;;;;;;;;;;5434054;26;20017;-75
2024/04/11 08:22:46;;;;;;;7.47;2.03;;;;;;;;;;5439616;26;20037;-76
2024/04/11 08:25:13;;;;;;;9.30;5.15;;;;;;;;;;5442426;26;20034;-75
2024/04/11 08:27:40;;;;;;;6.78;2.42;;;;;;;;;;5440901;26;20005;-75
2024/04/11 08:30:07;;;;;;;5.28;2.40;;;;;;;;;;5465866;26;20017;-75
2024/04/11 08:32:34;;;;;;;4.22;2.58;;;;;;;;;;5450860;26;20005;-75
2024/04/11 08:35:01;;;;;;;5.95;2.65;;;;;;;;;;5450824;26;20006;-76
2024/04/11 08:37:33;;;;;;;3.45;2.83;;;;;;;;;;5461191;26;20006;-75
2024/04/11 08:39:59;;;;;;;5.53;2.08;;;;;;;;;;5472113;26;20356;-76
2024/04/11 08:42:28;;;;;;;7.50;2.10;;;;;;;;;;5461815;26;20015;-76
2024/04/11 08:45:00;;;;;;;8.27;2.25;;;;;;;;;;5445551;26;20003;-76
2024/04/11 08:47:26;;;;;;;4.90;2.10;;;;;;;;;;5436653;26;19999;-76
2024/04/11 08:49:53;;;;;;;4.85;2.30;;;;;;;;;;5430254;26;20091;-76
2024/04/11 08:52:22;;;;;;;4.63;2.45;;;;;;;;;;5417814;26;20033;-76
2024/04/11 08:54:49;;;;;;;6.32;2.70;;;;;;;;;;5424346;26;20079;-76
2024/04/11 08:57:16;;;;;;;3.88;1.88;;;;;;;;;;5410338;26;20009;-75
2024/04/11 08:59:44;;;;;;;5.57;2.38;;;;;;;;;;5452499;26;20047;-76
2024/04/11 09:02:11;;;;;;;7.28;1.80;;;;;;;;;;5451670;26;20020;-76
2024/04/11 09:04:38;;;;;;;6.28;1.83;;;;;;;;;;5446616;26;20032;-75
2024/04/11 09:07:04;;;;;;;4.82;1.98;;;;;;;;;;5460757;26;20348;-76
2024/04/11 09:09:31;;;;;;;6.20;1.60;;;;;;;;;;5460798;26;20021;-76
2024/04/11 09:11:58;;;;;;;6.07;1.83;;;;;;;;;;5446640;26;20003;-76
2024/04/11 09:14:25;;;;;;;7.80;2.25;;;;;;;;;;5457489;26;20076;-76
2024/04/11 09:17:00;;;;;;;4.60;1.23;;;;;;;;;;5444248;26;20496;-76
2024/04/11 09:19:32;;;;;;;4.80;1.50;;;;;;;;;;5450170;26;20002;-75
2024/04/11 09:21:59;;;;;;;4.05;1.98;;;;;;;;;;5414516;26;20082;-76
2024/04/11 09:24:28;;;;;;;4.63;1.70;;;;;;;;;;5448214;26;20022;-75
2024/04/11 09:26:57;;;;;;;6.88;1.65;;;;;;;;;;5443700;26;20014;-76
2024/04/11 09:29:24;;;;;;;3.88;1.08;;;;;;;;;;5457318;26;20014;-76
2024/04/11 09:31:53;;;;;;;3.20;1.40;;;;;;;;;;5447903;26;20456;-77
2024/04/11 09:34:20;;;;;;;6.78;1.10;;;;;;;;;;5470568;26;20016;-76
2024/04/11 09:36:48;;;;;;;4.40;1.55;;;;;;;;;;5456465;26;20010;-76
2024/04/11 09:39:41;;;;;;;5.18;1.38;;;;;;;;;;5422202;26;19997;-75
2024/04/11 09:42:11;;;;;;;4.57;1.40;;;;;;;;;;5477135;26;20029;-76
2024/04/11 09:44:52;;;;;;;2.83;1.80;;;;;;;;;;5438625;26;19994;-75
2024/04/11 09:47:28;;;;;;;4.10;1.40;;;;;;;;;;5433311;26;20031;-76
2024/04/11 09:49:59;;;;;;;5.18;1.48;;;;;;;;;;5460761;26;20352;-79
2024/04/11 09:52:37;;;;;;;4.68;1.50;;;;;;;;;;5419127;26;20013;-75
2024/04/11 09:55:07;;;;;;;3.65;1.40;;;;;;;;;;5433962;26;20018;-74
2024/04/11 09:57:43;;;;;;;5.43;1.50;;;;;;;;;;5454176;26;20007;-75
2024/04/11 10:00:10;;;;;;;5.53;1.45;;;;;;;;;;5465338;26;20360;-75
2024/04/11 10:02:40;;;;;;;7.50;2.00;;;;;;;;;;5447364;26;20014;-75
2024/04/11 10:05:07;;;;;;;3.42;1.50;;;;;;;;;;5453385;26;20463;-75
2024/04/11 10:07:41;;;;;;;5.40;1.70;;;;;;;;;;5421354;26;20003;-76
2024/04/11 10:10:21;;;;;;;4.03;1.23;;;;;;;;;;5449621;26;20011;-76
2024/04/11 10:12:51;;;;;;;3.42;1.30;;;;;;;;;;5472496;26;20002;-75
2024/04/11 10:15:20;;;;;;;7.93;1.50;;;;;;;;;;5433901;26;20003;-76
2024/04/11 10:18:05;;;;;;;4.38;1.30;;;;;;;;;;5436975;26;20074;-75
2024/04/11 10:20:46;;;;;;;5.40;1.50;;;;;;;;;;5440988;26;20084;-74
2024/04/11 10:23:15;;;;;;;5.90;1.88;;;;;;;;;;5457133;26;20565;-75
2024/04/11 10:25:49;;;;;;;3.55;1.30;;;;;;;;;;5437345;26;20006;-75
2024/04/11 10:28:18;;;;;;;5.65;1.42;;;;;;;;;;5450957;26;20380;-75
2024/04/11 10:30:52;;;;;;;2.00;1.00;;;;;;;;;;5412529;26;20885;-76
2024/04/11 10:33:29;;;;;;;3.35;1.30;;;;;;;;;;5446127;26;20010;-75
2024/04/11 10:35:56;;;;;;;3.58;1.10;;;;;;;;;;5454383;26;20377;-75
2024/04/11 10:38:27;;;;;;;3.35;1.40;;;;;;;;;;5460233;26;19997;-75
2024/04/11 10:40:56;;;;;;;4.45;1.20;;;;;;;;;;5445223;26;20358;-75
2024/04/11 10:43:27;;;;;;;4.93;1.50;;;;;;;;;;5413189;26;20013;-76
2024/04/11 10:45:56;;;;;;;2.65;1.20;;;;;;;;;;5406386;26;20071;-75
2024/04/11 10:48:26;;;;;;;4.57;1.35;;;;;;;;;;5455148;26;20007;-75
2024/04/11 10:50:59;;;;;;;4.30;1.58;;;;;;;;;;5444509;26;20450;-75
2024/04/11 10:53:26;;;;;;;3.88;1.20;;;;;;;;;;5414457;26;20014;-75
2024/04/11 10:56:20;;;;;;;6.22;1.65;;;;;;;;;;5454291;26;20030;-75
2024/04/11 10:58:42;;;;;;;4.43;1.85;;;;;;;;;;5482513;26;20452;-75
2024/04/11 11:01:09;;;;;;;8.07;1.73;;;;;;;;;;5449147;26;20356;-75
2024/04/11 11:06:24;;;;;;;6.43;1.30;;;;;;;;;;5494781;26;20008;-74
2024/04/11 11:09:10;;;;;;;4.88;1.30;;;;;;;;;;5455540;26;20010;-75
2024/04/11 11:11:42;;;;;;;5.05;1.70;;;;;;;;;;5442130;26;19998;-74
2024/04/11 11:14:09;;;;;;;4.13;1.33;;;;;;;;;;5437571;26;20006;-75
2024/04/11 11:16:38;;;;;;;2.50;1.40;;;;;;;;;;5443368;26;19998;-75
2024/04/11 11:19:05;;;;;;;3.92;1.63;;;;;;;;;;5431067;26;20010;-75
2024/04/11 11:21:39;;;;;;;2.20;1.30;;;;;;;;;;5441115;26;20007;-75
2024/04/11 11:24:06;;;;;;;6.05;1.90;;;;;;;;;;5441846;26;20015;-76
2024/04/11 11:26:36;;;;;;;3.95;1.63;;;;;;;;;;5447749;26;20275;-75
2024/04/11 11:29:07;;;;;;;7.32;1.35;;;;;;;;;;5463067;26;20566;-76
2024/04/11 11:31:36;;;;;;;4.18;1.33;;;;;;;;;;5441977;26;20015;-75
2024/04/11 11:34:09;;;;;;;2.67;1.00;;;;;;;;;;5458017;26;20344;-76
2024/04/11 11:36:37;;;;;;;;;;;;;;;;;;5444380;26;20453;-75
2024/04/11 11:39:04;;;;;;;5.82;1.77;;;;;;;;;;5449327;26;19925;-76
2024/04/11 11:41:37;;;;;;;5.68;1.50;;;;;;;;;;5456304;26;20013;-75
2024/04/11 11:44:17;;;;;;;;;;;;;;;;;;5438300;26;20003;-75
2024/04/11 11:46:50;;;;;;;3.25;1.30;;;;;;;;;;5472156;26;19924;-75
2024/04/11 11:49:23;;;;;;;2.13;1.15;;;;;;;;;;5472003;26;20033;-75
2024/04/11 11:51:54;;;;;;;4.85;1.30;;;;;;;;;;5444114;26;20065;-75
2024/04/11 11:54:24;;;;;;;3.50;1.15;;;;;;;;;;5452542;26;20013;-75
2024/04/11 11:57:09;;;;;;;2.33;1.10;;;;;;;;;;5451794;26;20006;-75
2024/04/11 11:59:38;;;;;;;2.53;0.80;;;;;;;;;;5449533;26;20322;-75
2024/04/11 12:02:05;;;;;;;1.35;1.05;;;;;;;;;;5474204;26;20006;-75
2024/04/11 12:04:32;;;;;;;2.60;0.80;;;;;;;;;;5458862;26;20082;-75
2024/04/11 12:07:00;;;;;;;3.17;1.10;;;;;;;;;;5418218;26;20006;-75
2024/04/11 12:09:31;;;;;;;4.43;1.25;;;;;;;;;;5455768;26;20052;-75
2024/04/11 12:12:20;;;;;;;3.58;1.17;;;;;;;;;;5443266;26;20096;-75
2024/04/11 12:14:54;;;;;;;2.45;0.98;;;;;;;;;;5440005;26;20017;-75
2024/04/11 12:17:26;;;;;;;2.10;0.90;;;;;;;;;;5461875;26;20007;-75
2024/04/11 12:19:53;;;;;;;2.08;0.73;;;;;;;;;;5441217;26;20425;-75
2024/04/11 12:22:20;;;;;;;2.08;0.80;;;;;;;;;;5443047;26;20092;-75
2024/04/11 12:24:50;;;;;;;2.88;0.95;;;;;;;;;;5468340;26;20005;-75
2024/04/11 12:27:21;;;;;;;2.35;0.93;;;;;;;;;;5458407;26;20012;-78
2024/04/11 12:29:48;;;;;;;3.35;1.20;;;;;;;;;;5419709;26;20002;-75
2024/04/11 12:32:18;;;;;;;5.75;1.27;;;;;;;;;;5456030;26;20351;-75
2024/04/11 12:34:47;;;;;;;5.03;1.85;;;;;;;;;;5455608;26;20003;-75
2024/04/11 12:37:24;;;;;;;2.20;1.10;;;;;;;;;;5448446;26;20020;-75
2024/04/11 12:39:55;;;;;;;3.47;1.02;;;;;;;;;;5416198;26;20082;-74
2024/04/11 12:42:29;;;;;;;4.35;1.33;;;;;;;;;;5407830;26;20016;-75
2024/04/11 12:45:00;;;;;;;2.45;0.85;;;;;;;;;;5462170;26;20002;-75
2024/04/11 12:47:39;;;;;;;1.75;0.95;;;;;;;;;;5444058;26;20003;-75
2024/04/11 12:50:12;;;;;;;2.15;0.93;;;;;;;;;;5438693;26;20074;-75
2024/04/11 12:52:45;;;;;;;6.22;1.17;;;;;;;;;;5444287;26;20484;-76
2024/04/11 12:55:12;;;;;;;2.20;1.13;;;;;;;;;;5457276;26;20010;-75
2024/04/11 12:57:39;;;;;;;3.63;0.95;;;;;;;;;;5449352;26;20006;-76
2024/04/11 13:03:06;;;;;;;4.35;1.30;;;;;;;;;;5487048;26;20017;-75
2024/04/11 13:05:51;;;;;;;2.67;0.82;;;;;;;;;;5449132;26;20038;-75
2024/04/11 13:08:18;;;;;;;2.67;0.98;;;;;;;;;;5470691;26;20074;-75
2024/04/11 13:11:06;;;;;;;3.47;1.25;;;;;;;;;;5428029;26;20003;-75
2024/04/11 13:13:38;;;;;;;4.95;1.20;;;;;;;;;;5450925;26;20012;-75
2024/04/11 13:16:09;;;;;;;3.53;0.82;;;;;;;;;;5438671;26;20010;-75
2024/04/11 13:18:38;;;;;;;2.35;1.10;;;;;;;;;;5433226;26;20021;-75
2024/04/11 13:21:23;;;;;;;1.55;0.98;;;;;;;;;;5438153;26;20003;-75
2024/04/11 13:23:50;;;;;;;2.15;0.90;;;;;;;;;;5454820;26;20002;-75
2024/04/11 13:26:16;;;;;;;2.78;1.17;;;;;;;;;;5454542;26;20001;-75
2024/04/11 13:28:49;;;;;;;1.98;1.10;;;;;;;;;;5450725;26;20015;-75
2024/04/11 13:31:20;;;;;;;;;;;;;;;;;;5467218;26;20001;-75
2024/04/11 13:33:49;;;;;;;2.50;1.00;;;;;;;;;;5451576;26;19925;-75
2024/04/11 13:36:16;;;;;;;4.03;1.30;;;;;;;;;;5449732;26;19997;-75
2024/04/11 13:38:49;;;;;;;4.35;1.30;;;;;;;;;;5445488;26;20006;-75
2024/04/11 13:41:31;;;;;;;2.47;1.15;;;;;;;;;;5444657;26;20022;-78
2024/04/11 13:44:00;;;;;;;5.43;1.10;;;;;;;;;;5437076;26;20010;-74
2024/04/11 13:46:34;;;;;;;2.35;0.63;;;;;;;;;;5447075;26;20340;-73
2024/04/11 13:49:24;;;;;;;3.25;1.27;;;;;;;;;;5440423;26;20020;-73
2024/04/11 13:51:54;;;;;;;2.50;0.90;;;;;;;;;;5437150;26;20006;-73
2024/04/11 13:54:31;;;;;;;2.45;0.93;;;;;;;;;;5446652;26;20016;-73
2024/04/11 13:57:09;;;;;;;4.65;1.05;;;;;;;;;;5448100;26;20018;-74
2024/04/11 13:59:41;;;;;;;1.05;0.70;;;;;;;;;;5451289;26;20038;-74
2024/04/11 14:02:30;;;;;;;2.53;0.70;;;;;;;;;;5489978;26;20007;-73
2024/04/11 14:04:58;;;;;;;1.58;0.73;;;;;;;;;;5477707;26;20002;-73
2024/04/11 14:07:27;;;;;;;3.60;1.20;;;;;;;;;;5456669;26;20007;-72
2024/04/11 14:09:55;;;;;;;2.72;0.60;;;;;;;;;;5444877;26;20055;-73
2024/04/11 14:12:24;;;;;;;1.80;0.70;;;;;;;;;;5447592;26;20006;-73
2024/04/11 14:14:51;;;;;;;2.50;0.75;;;;;;;;;;5433593;26;20017;-73
2024/04/11 14:17:22;;;;;;;3.03;0.90;;;;;;;;;;5442269;26;20370;-73
2024/04/11 14:22:49;;;;;;;1.15;0.80;;;;;;;;;;5476457;26;20017;-74
2024/04/11 14:27:50;;;;;;;3.22;1.35;;;;;;;;;;5443264;26;20006;-75
2024/04/11 14:30:25;;;;;;;2.33;0.80;;;;;;;;;;5416780;26;20009;-75
2024/04/11 14:38:06;;;;;;;3.35;1.05;;;;;;;;;;5440834;26;20052;-76
2024/04/11 14:40:35;;;;;;;2.20;1.05;;;;;;;;;;5416398;26;20013;-75
2024/04/11 14:43:09;;;;;;;3.38;1.23;;;;;;;;;;5441178;26;20010;-76
2024/04/11 14:45:42;;;;;;;1.65;0.80;;;;;;;;;;5412920;26;20014;-76
2024/04/11 14:48:18;;;;;;;3.25;0.73;;;;;;;;;;5416037;26;20356;-75
2024/04/11 14:50:48;;;;;;;2.25;0.80;;;;;;;;;;5461380;26;19999;-76
2024/04/11 14:53:22;;;;;;;1.67;0.75;;;;;;;;;;5454092;26;20002;-76
2024/04/11 14:55:49;;;;;;;3.38;0.80;;;;;;;;;;5449164;26;20072;-75
2024/04/11 14:58:19;;;;;;;1.85;0.93;;;;;;;;;;5421502;26;20009;-75
2024/04/11 15:00:46;;;;;;;2.17;0.77;;;;;;;;;;5450110;26;20021;-75
2024/04/11 15:03:18;;;;;;;1.90;0.90;;;;;;;;;;5487479;26;20005;-75
2024/04/11 15:05:50;;;;;;;2.05;0.98;;;;;;;;;;5415275;26;20086;-75
2024/04/11 15:08:22;;;;;;;3.70;1.05;;;;;;;;;;5468684;26;20031;-75
2024/04/11 15:11:00;;;;;;;1.33;0.73;;;;;;;;;;5442854;26;20013;-76
2024/04/11 15:13:31;;;;;;;2.90;0.80;;;;;;;;;;5434625;26;20035;-78
2024/04/11 15:16:20;;;;;;;1.92;0.80;;;;;;;;;;5399409;26;20003;-77